sensor_id;sensor_type;location;lat;lon;timestamp;pressure;altitude;pressure_sealevel;temperature;humidity
31761;BME280;18335;51.486;7.562;2024-03-25T00:01:50;99294.47;;;7.80;100.00
31761;BME280;18335;51.486;7.562;2024-03-25T00:04:17;99292.31;;;7.67;100.00
31761;BME280;18335;51.486;7.562;2024-03-25T00:06:46;99298.56;;;7.19;100.00
31761;BME280;18335;51.486;7.562;2024-03-25T00:09:12;99296.69;;;7.76;100.00
31761;BME280;18335;51.486;7.562;2024-03-25T00:11:40;99300.44;;;7.59;100.00
31761;BME280;18335;51.486;7.562;2024-03-25T00:14:05;99293.97;;;7.76;100.00
31761;BME280;18335;51.486;7.562;2024-03-25T00:16:32;99296.53;;;7.70;100.00
31761;BME280;18335;51.486;7.562;2024-03-25T00:18:58;99306.53;;;7.37;100.00
31761;BME280;18335;51.486;7.562;2024-03-25T00:21:26;99306.69;;;7.44;100.00
31761;BME280;18335;51.486;7.562;2024-03-25T00:23:52;99300.63;;;7.58;100.00
31761;BME280;18335;51.486;7.562;2024-03-25T00:26:21;99309.94;;;7.63;100.00
31761;BME280;18335;51.486;7.562;2024-03-25T00:28:47;99301.13;;;7.37;100.00
31761;BME280;18335;51.486;7.562;2024-03-25T00:31:14;99299.41;;;7.36;100.00
31761;BME280;18335;51.486;7.562;2024-03-25T00:33:40;99310.44;;;7.43;100.00
31761;BME280;18335;51.486;7.562;2024-03-25T00:36:07;99302.59;;;7.15;100.00
31761;BME280;18335;51.486;7.562;2024-03-25T00:38:34;99302.31;;;7.35;100.00
31761;BME280;18335;51.486;7.562;2024-03-25T00:41:01;99312.31;;;7.58;100.00
31761;BME280;18335;51.486;7.562;2024-03-25T00:43:27;99310.97;;;7.46;100.00
31761;BME280;18335;51.486;7.562;2024-03-25T00:45:54;99302.13;;;7.44;100.00
31761;BME280;18335;51.486;7.562;2024-03-25T00:48:20;99305.88;;;7.43;100.00
31761;BME280;18335;51.486;7.562;2024-03-25T00:50:47;99316.31;;;7.14;100.00
31761;BME280;18335;51.486;7.562;2024-03-25T00:53:12;99315.03;;;7.42;100.00
31761;BME280;18335;51.486;7.562;2024-03-25T00:55:41;99305.13;;;7.17;100.00
31761;BME280;18335;51.486;7.562;2024-03-25T00:58:06;99308.88;;;7.32;100.00
31761;BME280;18335;51.486;7.562;2024-03-25T01:00:33;99306.19;;;7.56;100.00
31761;BME280;18335;51.486;7.562;2024-03-25T01:02:59;99300.78;;;7.72;100.00
31761;BME280;18335;51.486;7.562;2024-03-25T01:05:26;99304.16;;;7.42;100.00
31761;BME280;18335;51.486;7.562;2024-03-25T01:07:51;99295.13;;;7.17;100.00
31761;BME280;18335;51.486;7.562;2024-03-25T01:10:19;99295.84;;;7.44;100.00
31761;BME280;18335;51.486;7.562;2024-03-25T01:12:46;99297.91;;;7.58;100.00
31761;BME280;18335;51.486;7.562;2024-03-25T01:15:13;99306.53;;;7.37;100.00
31761;BME280;18335;51.486;7.562;2024-03-25T01:17:39;99305.84;;;7.59;100.00
31761;BME280;18335;51.486;7.562;2024-03-25T01:20:06;99301.25;;;7.44;100.00
31761;BME280;18335;51.486;7.562;2024-03-25T01:22:31;99307.03;;;7.33;100.00
31761;BME280;18335;51.486;7.562;2024-03-25T01:24:58;99312.97;;;7.44;100.00
31761;BME280;18335;51.486;7.562;2024-03-25T01:27:24;99313.50;;;7.32;100.00
31761;BME280;18335;51.486;7.562;2024-03-25T01:29:52;99312.97;;;7.28;100.00
31761;BME280;18335;51.486;7.562;2024-03-25T01:32:18;99313.91;;;6.87;100.00
31761;BME280;18335;51.486;7.562;2024-03-25T01:34:45;99311.44;;;7.34;100.00
31761;BME280;18335;51.486;7.562;2024-03-25T01:37:11;99313.06;;;7.02;100.00
31761;BME280;18335;51.486;7.562;2024-03-25T01:39:37;99311.63;;;7.56;100.00
31761;BME280;18335;51.486;7.562;2024-03-25T01:42:04;99312.44;;;7.16;100.00
31761;BME280;18335;51.486;7.562;2024-03-25T01:44:31;99311.59;;;7.24;100.00
31761;BME280;18335;51.486;7.562;2024-03-25T01:46:59;99308.72;;;7.42;100.00
31761;BME280;18335;51.486;7.562;2024-03-25T01:49:26;99305.31;;;7.23;100.00
31761;BME280;18335;51.486;7.562;2024-03-25T01:51:52;99302.47;;;7.49;100.00
31761;BME280;18335;51.486;7.562;2024-03-25T01:54:19;99299.41;;;7.36;100.00
31761;BME280;18335;51.486;7.562;2024-03-25T01:56:45;99305.88;;;7.43;100.00
31761;BME280;18335;51.486;7.562;2024-03-25T01:59:13;99308.31;;;6.96;100.00
31761;BME280;18335;51.486;7.562;2024-03-25T02:01:41;99315.66;;;7.20;100.00
31761;BME280;18335;51.486;7.562;2024-03-25T02:04:10;99311.34;;;6.85;100.00
31761;BME280;18335;51.486;7.562;2024-03-25T02:06:40;99309.25;;;7.53;100.00
31761;BME280;18335;51.486;7.562;2024-03-25T02:09:09;99324.69;;;7.29;100.00
31761;BME280;18335;51.486;7.562;2024-03-25T02:11:36;99319.88;;;7.06;100.00
31761;BME280;18335;51.486;7.562;2024-03-25T02:14:03;99319.88;;;7.06;100.00
31761;BME280;18335;51.486;7.562;2024-03-25T02:16:30;99321.06;;;7.04;100.00
31761;BME280;18335;51.486;7.562;2024-03-25T02:18:56;99322.44;;;7.32;100.00
31761;BME280;18335;51.486;7.562;2024-03-25T02:21:24;99320.75;;;7.23;100.00
31761;BME280;18335;51.486;7.562;2024-03-25T02:23:53;99318.38;;;7.20;100.00
31761;BME280;18335;51.486;7.562;2024-03-25T02:26:22;99322.72;;;7.05;100.00
31761;BME280;18335;51.486;7.562;2024-03-25T02:28:49;99326.16;;;7.07;100.00
31761;BME280;18335;51.486;7.562;2024-03-25T02:31:14;99336.25;;;6.81;100.00
31761;BME280;18335;51.486;7.562;2024-03-25T02:33:41;99336.69;;;7.26;100.00
31761;BME280;18335;51.486;7.562;2024-03-25T02:36:07;99324.81;;;7.19;100.00
31761;BME280;18335;51.486;7.562;2024-03-25T02:38:35;99330.88;;;7.05;100.00
31761;BME280;18335;51.486;7.562;2024-03-25T02:41:01;99336.34;;;7.21;100.00
31761;BME280;18335;51.486;7.562;2024-03-25T02:43:30;99333.34;;;7.40;100.00
31761;BME280;18335;51.486;7.562;2024-03-25T02:45:56;99329.22;;;7.20;100.00
31761;BME280;18335;51.486;7.562;2024-03-25T02:48:22;99340.78;;;7.22;100.00
31761;BME280;18335;51.486;7.562;2024-03-25T02:50:49;99336.53;;;7.36;100.00
31761;BME280;18335;51.486;7.562;2024-03-25T02:53:16;99336.03;;;7.32;100.00
31761;BME280;18335;51.486;7.562;2024-03-25T02:55:41;99333.44;;;7.06;100.00
31761;BME280;18335;51.486;7.562;2024-03-25T02:58:08;99332.78;;;7.20;100.00
31761;BME280;18335;51.486;7.562;2024-03-25T03:00:35;99328.91;;;7.39;100.00
31761;BME280;18335;51.486;7.562;2024-03-25T03:03:02;99330.91;;;7.13;100.00
31761;BME280;18335;51.486;7.562;2024-03-25T03:05:28;99328.06;;;7.22;100.00
31761;BME280;18335;51.486;7.562;2024-03-25T03:07:55;99324.31;;;7.15;100.00
31761;BME280;18335;51.486;7.562;2024-03-25T03:10:21;99329.53;;;7.17;100.00
31761;BME280;18335;51.486;7.562;2024-03-25T03:12:48;99332.75;;;7.04;100.00
31761;BME280;18335;51.486;7.562;2024-03-25T03:15:14;99338.00;;;6.98;100.00
31761;BME280;18335;51.486;7.562;2024-03-25T03:17:43;99348.44;;;6.85;100.00
31761;BME280;18335;51.486;7.562;2024-03-25T03:20:09;99343.94;;;7.01;100.00
31761;BME280;18335;51.486;7.562;2024-03-25T03:22:36;99341.84;;;6.87;100.00
31761;BME280;18335;51.486;7.562;2024-03-25T03:25:03;99340.38;;;7.01;100.00
31761;BME280;18335;51.486;7.562;2024-03-25T03:27:30;99337.47;;;6.52;100.00
31761;BME280;18335;51.486;7.562;2024-03-25T03:29:56;99337.47;;;7.02;100.00
31761;BME280;18335;51.486;7.562;2024-03-25T03:32:22;99339.69;;;6.99;100.00
31761;BME280;18335;51.486;7.562;2024-03-25T03:34:50;99340.72;;;7.06;100.00
31761;BME280;18335;51.486;7.562;2024-03-25T03:37:16;99335.81;;;7.09;100.00
31761;BME280;18335;51.486;7.562;2024-03-25T03:39:42;99349.25;;;7.27;100.00
31761;BME280;18335;51.486;7.562;2024-03-25T03:42:09;99345.53;;;7.28;100.00
31761;BME280;18335;51.486;7.562;2024-03-25T03:44:34;99342.09;;;7.10;100.00
31761;BME280;18335;51.486;7.562;2024-03-25T03:47:01;99332.75;;;7.04;100.00
31761;BME280;18335;51.486;7.562;2024-03-25T03:49:27;99337.97;;;6.90;100.00
31761;BME280;18335;51.486;7.562;2024-03-25T03:51:55;99337.97;;;6.90;100.00
31761;BME280;18335;51.486;7.562;2024-03-25T03:54:21;99334.94;;;7.01;100.00
31761;BME280;18335;51.486;7.562;2024-03-25T03:56:47;99340.34;;;6.93;100.00
31761;BME280;18335;51.486;7.562;2024-03-25T03:59:13;99338.66;;;6.92;100.00
31761;BME280;18335;51.486;7.562;2024-03-25T04:01:40;99335.59;;;6.87;100.00
31761;BME280;18335;51.486;7.562;2024-03-25T04:04:05;99340.03;;;7.04;100.00
31761;BME280;18335;51.486;7.562;2024-03-25T04:06:32;99342.97;;;6.68;100.00
31761;BME280;18335;51.486;7.562;2024-03-25T04:08:59;99339.59;;;6.41;100.00
31761;BME280;18335;51.486;7.562;2024-03-25T04:11:26;99341.72;;;6.97;100.00
31761;BME280;18335;51.486;7.562;2024-03-25T04:13:51;99338.19;;;6.62;100.00
31761;BME280;18335;51.486;7.562;2024-03-25T04:16:18;99331.56;;;6.99;100.00
31761;BME280;18335;51.486;7.562;2024-03-25T04:18:44;99333.41;;;6.98;100.00
31761;BME280;18335;51.486;7.562;2024-03-25T04:21:12;99336.16;;;6.64;100.00
31761;BME280;18335;51.486;7.562;2024-03-25T04:23:39;99341.69;;;6.89;100.00
31761;BME280;18335;51.486;7.562;2024-03-25T04:26:07;99339.50;;;6.50;100.00
31761;BME280;18335;51.486;7.562;2024-03-25T04:28:34;99340.59;;;6.74;100.00
31761;BME280;18335;51.486;7.562;2024-03-25T04:31:01;99337.34;;;7.04;100.00
31761;BME280;18335;51.486;7.562;2024-03-25T04:33:26;99344.53;;;6.87;100.00
31761;BME280;18335;51.486;7.562;2024-03-25T04:35:53;99340.28;;;6.77;100.00
31761;BME280;18335;51.486;7.562;2024-03-25T04:38:19;99345.41;;;6.88;100.00
31761;BME280;18335;51.486;7.562;2024-03-25T04:40:44;99345.13;;;6.99;100.00
31761;BME280;18335;51.486;7.562;2024-03-25T04:43:12;99349.28;;;6.85;100.00
31761;BME280;18335;51.486;7.562;2024-03-25T04:45:37;99344.31;;;6.73;100.00
31761;BME280;18335;51.486;7.562;2024-03-25T04:48:04;99357.25;;;6.45;100.00
31761;BME280;18335;51.486;7.562;2024-03-25T04:50:30;99354.78;;;6.59;100.00
31761;BME280;18335;51.486;7.562;2024-03-25T04:52:56;99358.50;;;6.58;100.00
31761;BME280;18335;51.486;7.562;2024-03-25T04:55:22;99359.25;;;6.43;100.00
31761;BME280;18335;51.486;7.562;2024-03-25T04:57:48;99359.25;;;6.43;100.00
31761;BME280;18335;51.486;7.562;2024-03-25T05:00:16;99368.38;;;6.67;100.00
31761;BME280;18335;51.486;7.562;2024-03-25T05:02:42;99357.84;;;6.64;100.00
31761;BME280;18335;51.486;7.562;2024-03-25T05:05:07;99372.59;;;6.70;100.00
31761;BME280;18335;51.486;7.562;2024-03-25T05:07:34;99372.88;;;6.51;100.00
31761;BME280;18335;51.486;7.562;2024-03-25T05:09:59;99370.91;;;6.69;100.00
31761;BME280;18335;51.486;7.562;2024-03-25T05:12:25;99362.72;;;6.53;100.00
31761;BME280;18335;51.486;7.562;2024-03-25T05:14:51;99369.34;;;6.58;100.00
31761;BME280;18335;51.486;7.562;2024-03-25T05:17:19;99369.34;;;6.58;100.00
31761;BME280;18335;51.486;7.562;2024-03-25T05:19:45;99383.50;;;6.44;100.00
31761;BME280;18335;51.486;7.562;2024-03-25T05:22:11;99383.53;;;6.52;100.00
31761;BME280;18335;51.486;7.562;2024-03-25T05:24:36;99390.81;;;6.26;100.00
31761;BME280;18335;51.486;7.562;2024-03-25T05:27:02;99382.59;;;6.69;100.00
31761;BME280;18335;51.486;7.562;2024-03-25T05:29:28;99385.38;;;6.78;100.00
31761;BME280;18335;51.486;7.562;2024-03-25T05:31:58;99384.13;;;6.72;100.00
31761;BME280;18335;51.486;7.562;2024-03-25T05:34:27;99396.66;;;6.39;100.00
31761;BME280;18335;51.486;7.562;2024-03-25T05:36:53;99395.00;;;6.46;100.00
31761;BME280;18335;51.486;7.562;2024-03-25T05:39:20;99388.84;;;6.96;100.00
31761;BME280;18335;51.486;7.562;2024-03-25T05:41:46;99393.84;;;6.83;100.00
31761;BME280;18335;51.486;7.562;2024-03-25T05:44:12;99391.78;;;7.10;100.00
31761;BME280;18335;51.486;7.562;2024-03-25T05:46:38;99381.25;;;7.07;100.00
31761;BME280;18335;51.486;7.562;2024-03-25T05:49:04;99389.22;;;7.17;100.00
31761;BME280;18335;51.486;7.562;2024-03-25T05:51:31;99388.75;;;7.21;100.00
31761;BME280;18335;51.486;7.562;2024-03-25T05:53:57;99392.19;;;7.32;100.00
31761;BME280;18335;51.486;7.562;2024-03-25T05:56:23;99400.38;;;7.06;100.00
31761;BME280;18335;51.486;7.562;2024-03-25T05:58:49;99397.88;;;7.12;100.00
31761;BME280;18335;51.486;7.562;2024-03-25T06:01:14;99391.94;;;7.17;100.00
31761;BME280;18335;51.486;7.562;2024-03-25T06:03:40;99391.94;;;7.17;100.00
31761;BME280;18335;51.486;7.562;2024-03-25T06:06:06;99393.97;;;7.07;100.00
31761;BME280;18335;51.486;7.562;2024-03-25T06:08:33;99389.50;;;6.90;100.00
31761;BME280;18335;51.486;7.562;2024-03-25T06:11:02;99395.81;;;7.06;100.00
31761;BME280;18335;51.486;7.562;2024-03-25T06:13:28;99389.16;;;6.93;100.00
31761;BME280;18335;51.486;7.562;2024-03-25T06:15:54;99389.56;;;6.72;100.00
31761;BME280;18335;51.486;7.562;2024-03-25T06:18:20;99390.16;;;6.84;100.00
31761;BME280;18335;51.486;7.562;2024-03-25T06:20:46;99395.94;;;6.97;100.00
31761;BME280;18335;51.486;7.562;2024-03-25T06:23:22;99403.97;;;7.06;100.00
31761;BME280;18335;51.486;7.562;2024-03-25T06:25:50;99387.44;;;7.34;100.00
31761;BME280;18335;51.486;7.562;2024-03-25T06:28:16;99398.31;;;7.00;100.00
31761;BME280;18335;51.486;7.562;2024-03-25T06:30:41;99406.88;;;7.13;100.00
31761;BME280;18335;51.486;7.562;2024-03-25T06:33:26;99402.75;;;7.01;100.00
31761;BME280;18335;51.486;7.562;2024-03-25T06:36:10;99399.13;;;7.34;100.00
31761;BME280;18335;51.486;7.562;2024-03-25T06:38:36;99396.03;;;7.13;100.00
31761;BME280;18335;51.486;7.562;2024-03-25T06:41:03;99400.94;;;7.17;100.00
31761;BME280;18335;51.486;7.562;2024-03-25T06:43:29;99396.44;;;7.50;100.00
31761;BME280;18335;51.486;7.562;2024-03-25T06:45:55;99394.09;;;7.63;100.00
31761;BME280;18335;51.486;7.562;2024-03-25T06:48:21;99393.72;;;7.34;100.00
31761;BME280;18335;51.486;7.562;2024-03-25T06:50:54;99389.69;;;7.54;100.00
31761;BME280;18335;51.486;7.562;2024-03-25T06:53:20;99394.78;;;7.57;100.00
31761;BME280;18335;51.486;7.562;2024-03-25T06:55:54;99401.91;;;7.66;100.00
31761;BME280;18335;51.486;7.562;2024-03-25T06:58:22;99399.16;;;7.50;100.00
31761;BME280;18335;51.486;7.562;2024-03-25T07:00:49;99403.91;;;7.56;100.00
31761;BME280;18335;51.486;7.562;2024-03-25T07:03:15;99410.91;;;7.67;100.00
31761;BME280;18335;51.486;7.562;2024-03-25T07:05:41;99405.78;;;7.56;100.00
31761;BME280;18335;51.486;7.562;2024-03-25T07:08:09;99401.41;;;7.71;100.00
31761;BME280;18335;51.486;7.562;2024-03-25T07:10:35;99399.50;;;7.47;100.00
31761;BME280;18335;51.486;7.562;2024-03-25T07:13:01;99401.41;;;7.71;100.00
31761;BME280;18335;51.486;7.562;2024-03-25T07:15:28;99410.38;;;7.55;100.00
31761;BME280;18335;51.486;7.562;2024-03-25T07:17:54;99399.53;;;8.04;100.00
31761;BME280;18335;51.486;7.562;2024-03-25T07:20:19;99409.06;;;8.00;100.00
31761;BME280;18335;51.486;7.562;2024-03-25T07:22:45;99401.78;;;8.08;100.00
31761;BME280;18335;51.486;7.562;2024-03-25T07:25:11;99410.66;;;7.28;100.00
31761;BME280;18335;51.486;7.562;2024-03-25T07:27:37;99415.00;;;8.60;100.00
31761;BME280;18335;51.486;7.562;2024-03-25T07:30:04;99410.47;;;8.36;100.00
31761;BME280;18335;51.486;7.562;2024-03-25T07:32:32;99414.84;;;8.37;100.00
31761;BME280;18335;51.486;7.562;2024-03-25T07:34:57;99415.03;;;8.36;100.00
31761;BME280;18335;51.486;7.562;2024-03-25T07:37:23;99422.63;;;8.64;100.00
31761;BME280;18335;51.486;7.562;2024-03-25T07:39:49;99408.97;;;8.88;100.00
31761;BME280;18335;51.486;7.562;2024-03-25T07:42:15;99413.31;;;8.51;100.00
31761;BME280;18335;51.486;7.562;2024-03-25T07:44:41;99419.41;;;8.69;100.00
31761;BME280;18335;51.486;7.562;2024-03-25T07:47:06;99415.66;;;8.62;100.00
31761;BME280;18335;51.486;7.562;2024-03-25T07:49:34;99416.19;;;8.49;100.00
31761;BME280;18335;51.486;7.562;2024-03-25T07:51:59;99421.66;;;8.09;100.00
31761;BME280;18335;51.486;7.562;2024-03-25T07:54:26;99422.31;;;8.19;100.00
31761;BME280;18335;51.486;7.562;2024-03-25T07:56:52;99429.97;;;8.48;100.00
31761;BME280;18335;51.486;7.562;2024-03-25T07:59:18;99421.13;;;8.13;100.00
31761;BME280;18335;51.486;7.562;2024-03-25T08:01:44;99421.47;;;8.34;100.00
31761;BME280;18335;51.486;7.562;2024-03-25T08:04:10;99423.31;;;8.58;100.00
31761;BME280;18335;51.486;7.562;2024-03-25T08:06:38;99417.72;;;8.52;100.00
31761;BME280;18335;51.486;7.562;2024-03-25T08:09:04;99414.84;;;8.37;100.00
31761;BME280;18335;51.486;7.562;2024-03-25T08:11:30;99416.53;;;8.22;100.00
31761;BME280;18335;51.486;7.562;2024-03-25T08:13:56;99421.16;;;8.38;100.00
31761;BME280;18335;51.486;7.562;2024-03-25T08:16:22;99421.25;;;8.60;100.00
31761;BME280;18335;51.486;7.562;2024-03-25T08:18:48;99414.69;;;8.30;100.00
31761;BME280;18335;51.486;7.562;2024-03-25T08:21:14;99411.41;;;8.67;100.00
31761;BME280;18335;51.486;7.562;2024-03-25T08:23:41;99420.91;;;8.79;100.00
31761;BME280;18335;51.486;7.562;2024-03-25T08:26:06;99414.47;;;9.11;100.00
31761;BME280;18335;51.486;7.562;2024-03-25T08:28:33;99416.38;;;9.11;100.00
31761;BME280;18335;51.486;7.562;2024-03-25T08:30:58;99406.88;;;9.68;100.00
31761;BME280;18335;51.486;7.562;2024-03-25T08:33:24;99408.88;;;9.74;100.00
31761;BME280;18335;51.486;7.562;2024-03-25T08:35:50;99406.94;;;9.60;100.00
31761;BME280;18335;51.486;7.562;2024-03-25T08:38:16;99411.72;;;9.58;100.00
31761;BME280;18335;51.486;7.562;2024-03-25T08:40:43;99417.03;;;9.74;100.00
31761;BME280;18335;51.486;7.562;2024-03-25T08:43:09;99417.59;;;9.70;100.00
31761;BME280;18335;51.486;7.562;2024-03-25T08:45:35;99410.41;;;9.99;100.00
31761;BME280;18335;51.486;7.562;2024-03-25T08:48:00;99408.91;;;10.57;100.00
31761;BME280;18335;51.486;7.562;2024-03-25T08:50:26;99407.94;;;10.50;100.00
31761;BME280;18335;51.486;7.562;2024-03-25T08:52:52;99408.63;;;10.81;100.00
31761;BME280;18335;51.486;7.562;2024-03-25T08:55:18;99400.91;;;10.70;100.00
31761;BME280;18335;51.486;7.562;2024-03-25T08:57:46;99398.75;;;10.51;100.00
31761;BME280;18335;51.486;7.562;2024-03-25T09:00:12;99392.34;;;10.59;100.00
31761;BME280;18335;51.486;7.562;2024-03-25T09:02:38;99392.72;;;10.55;100.00
31761;BME280;18335;51.486;7.562;2024-03-25T09:05:05;99398.94;;;10.64;100.00
31761;BME280;18335;51.486;7.562;2024-03-25T09:07:31;99399.59;;;10.66;100.00
31761;BME280;18335;51.486;7.562;2024-03-25T09:09:57;99394.91;;;10.23;100.00
31761;BME280;18335;51.486;7.562;2024-03-25T09:12:57;99396.94;;;10.58;100.00
31761;BME280;18335;51.486;7.562;2024-03-25T09:15:23;99394.69;;;10.01;100.00
31761;BME280;18335;51.486;7.562;2024-03-25T09:17:49;99392.16;;;10.60;100.00
31761;BME280;18335;51.486;7.562;2024-03-25T09:20:15;99398.28;;;10.25;100.00
31761;BME280;18335;51.486;7.562;2024-03-25T09:22:43;99399.50;;;10.74;100.00
31761;BME280;18335;51.486;7.562;2024-03-25T09:25:09;99394.97;;;10.81;100.00
31761;BME280;18335;51.486;7.562;2024-03-25T09:27:35;99390.66;;;11.01;100.00
31761;BME280;18335;51.486;7.562;2024-03-25T09:30:03;99401.72;;;10.41;100.00
31761;BME280;18335;51.486;7.562;2024-03-25T09:32:29;99385.75;;;10.82;100.00
31761;BME280;18335;51.486;7.562;2024-03-25T09:34:55;99386.03;;;11.31;100.00
31761;BME280;18335;51.486;7.562;2024-03-25T09:37:21;99388.31;;;10.98;100.00
31761;BME280;18335;51.486;7.562;2024-03-25T09:39:47;99386.41;;;11.28;100.00
31761;BME280;18335;51.486;7.562;2024-03-25T09:42:15;99381.44;;;11.53;100.00
31761;BME280;18335;51.486;7.562;2024-03-25T09:44:44;99389.16;;;11.14;100.00
31761;BME280;18335;51.486;7.562;2024-03-25T09:47:11;99387.09;;;11.51;100.00
31761;BME280;18335;51.486;7.562;2024-03-25T09:49:40;99383.34;;;11.02;100.00
31761;BME280;18335;51.486;7.562;2024-03-25T09:52:06;99384.53;;;11.50;100.00
31761;BME280;18335;51.486;7.562;2024-03-25T09:54:32;99381.03;;;11.35;100.00
31761;BME280;18335;51.486;7.562;2024-03-25T09:56:59;99381.50;;;11.24;100.00
31761;BME280;18335;51.486;7.562;2024-03-25T09:59:26;99379.91;;;11.15;100.00
31761;BME280;18335;51.486;7.562;2024-03-25T10:01:52;99388.38;;;10.61;100.00
31761;BME280;18335;51.486;7.562;2024-03-25T10:04:20;99386.88;;;10.59;100.00
31761;BME280;18335;51.486;7.562;2024-03-25T10:06:47;99377.59;;;10.82;100.00
31761;BME280;18335;51.486;7.562;2024-03-25T10:09:13;99375.06;;;10.81;100.00
31761;BME280;18335;51.486;7.562;2024-03-25T10:11:39;99369.84;;;11.15;100.00
31761;BME280;18335;51.486;7.562;2024-03-25T10:14:05;99367.03;;;11.44;100.00
31761;BME280;18335;51.486;7.562;2024-03-25T10:16:32;99369.22;;;11.49;100.00
31761;BME280;18335;51.486;7.562;2024-03-25T10:18:58;99374.56;;;11.57;100.00
31761;BME280;18335;51.486;7.562;2024-03-25T10:21:25;99368.25;;;11.56;100.00
31761;BME280;18335;51.486;7.562;2024-03-25T10:23:51;99358.41;;;11.41;100.00
31761;BME280;18335;51.486;7.562;2024-03-25T10:26:27;99361.28;;;11.54;100.00
31761;BME280;18335;51.486;7.562;2024-03-25T10:29:03;99359.97;;;10.99;100.00
31761;BME280;18335;51.486;7.562;2024-03-25T10:31:29;99353.50;;;10.86;100.00
31761;BME280;18335;51.486;7.562;2024-03-25T10:33:57;99350.69;;;11.30;100.00
31761;BME280;18335;51.486;7.562;2024-03-25T10:36:25;99342.28;;;11.46;100.00
31761;BME280;18335;51.486;7.562;2024-03-25T10:38:54;99341.22;;;11.26;100.00
31761;BME280;18335;51.486;7.562;2024-03-25T10:41:20;99341.03;;;11.13;100.00
31761;BME280;18335;51.486;7.562;2024-03-25T10:43:47;99338.66;;;11.24;100.00
31761;BME280;18335;51.486;7.562;2024-03-25T10:46:18;99341.59;;;11.23;100.00
31761;BME280;18335;51.486;7.562;2024-03-25T10:48:52;99345.09;;;11.17;100.00
31761;BME280;18335;51.486;7.562;2024-03-25T10:51:21;99347.53;;;11.11;100.00
31761;BME280;18335;51.486;7.562;2024-03-25T10:53:51;99335.19;;;11.51;100.00
31761;BME280;18335;51.486;7.562;2024-03-25T10:56:20;99336.06;;;11.01;100.00
31761;BME280;18335;51.486;7.562;2024-03-25T10:58:48;99341.81;;;10.92;100.00
31761;BME280;18335;51.486;7.562;2024-03-25T11:01:16;99330.25;;;11.40;100.00
31761;BME280;18335;51.486;7.562;2024-03-25T11:03:43;99323.66;;;10.70;100.00
31761;BME280;18335;51.486;7.562;2024-03-25T11:06:09;99324.63;;;11.27;100.00
31761;BME280;18335;51.486;7.562;2024-03-25T11:08:35;99324.53;;;11.21;100.00
31761;BME280;18335;51.486;7.562;2024-03-25T11:11:02;99310.06;;;11.05;100.00
31761;BME280;18335;51.486;7.562;2024-03-25T11:13:29;99319.34;;;11.83;100.00
31761;BME280;18335;51.486;7.562;2024-03-25T11:15:55;99311.47;;;12.15;100.00
31761;BME280;18335;51.486;7.562;2024-03-25T11:18:23;99307.19;;;12.06;100.00
31761;BME280;18335;51.486;7.562;2024-03-25T11:20:59;99298.72;;;12.29;100.00
31761;BME280;18335;51.486;7.562;2024-03-25T11:23:26;99300.44;;;12.37;100.00
31761;BME280;18335;51.486;7.562;2024-03-25T11:25:55;99296.69;;;12.72;100.00
31761;BME280;18335;51.486;7.562;2024-03-25T11:28:28;99287.94;;;12.96;100.00
31761;BME280;18335;51.486;7.562;2024-03-25T11:30:55;99288.00;;;12.62;100.00
31761;BME280;18335;51.486;7.562;2024-03-25T11:33:21;99277.72;;;13.11;100.00
31761;BME280;18335;51.486;7.562;2024-03-25T11:35:47;99279.13;;;13.61;100.00
31761;BME280;18335;51.486;7.562;2024-03-25T11:38:13;99284.84;;;12.65;100.00
31761;BME280;18335;51.486;7.562;2024-03-25T11:40:41;99280.94;;;12.12;100.00
31761;BME280;18335;51.486;7.562;2024-03-25T11:43:17;99286.38;;;12.40;100.00
31761;BME280;18335;51.486;7.562;2024-03-25T11:45:46;99268.78;;;12.96;100.00
31761;BME280;18335;51.486;7.562;2024-03-25T11:48:14;99276.25;;;12.68;88.16
31761;BME280;18335;51.486;7.562;2024-03-25T11:50:39;99265.19;;;12.89;93.57
31761;BME280;18335;51.486;7.562;2024-03-25T11:53:05;99265.09;;;12.35;83.68
31761;BME280;18335;51.486;7.562;2024-03-25T11:55:31;99259.94;;;12.94;89.03
31761;BME280;18335;51.486;7.562;2024-03-25T11:57:57;99250.78;;;13.21;87.82
31761;BME280;18335;51.486;7.562;2024-03-25T12:00:24;99252.78;;;13.67;87.62
31761;BME280;18335;51.486;7.562;2024-03-25T12:02:52;99250.75;;;13.15;81.20
31761;BME280;18335;51.486;7.562;2024-03-25T12:05:18;99250.69;;;12.95;87.10
31761;BME280;18335;51.486;7.562;2024-03-25T12:07:44;99243.19;;;13.23;89.38
31761;BME280;18335;51.486;7.562;2024-03-25T12:10:10;99232.22;;;12.63;78.16
31761;BME280;18335;51.486;7.562;2024-03-25T12:12:55;99235.91;;;12.96;85.93
31761;BME280;18335;51.486;7.562;2024-03-25T12:15:21;99229.50;;;13.10;100.00
31761;BME280;18335;51.486;7.562;2024-03-25T12:17:47;99225.50;;;13.32;99.36
31761;BME280;18335;51.486;7.562;2024-03-25T12:20:15;99220.03;;;13.19;96.47
31761;BME280;18335;51.486;7.562;2024-03-25T12:22:41;99218.75;;;13.15;100.00
31761;BME280;18335;51.486;7.562;2024-03-25T12:25:08;99224.69;;;13.39;90.18
31761;BME280;18335;51.486;7.562;2024-03-25T12:27:35;99213.19;;;12.96;89.57
31761;BME280;18335;51.486;7.562;2024-03-25T12:30:03;99208.94;;;12.93;97.04
31761;BME280;18335;51.486;7.562;2024-03-25T12:32:31;99211.06;;;12.91;91.13
31761;BME280;18335;51.486;7.562;2024-03-25T12:34:58;99202.09;;;13.10;94.38
31761;BME280;18335;51.486;7.562;2024-03-25T12:37:27;99202.28;;;13.09;91.44
31761;BME280;18335;51.486;7.562;2024-03-25T12:39:53;99197.88;;;13.08;100.00
31761;BME280;18335;51.486;7.562;2024-03-25T12:42:19;99192.75;;;12.92;94.03
31761;BME280;18335;51.486;7.562;2024-03-25T12:44:45;99180.25;;;12.76;100.00
31761;BME280;18335;51.486;7.562;2024-03-25T12:47:10;99187.22;;;12.31;100.00
31761;BME280;18335;51.486;7.562;2024-03-25T12:49:36;99191.03;;;12.84;99.97
31761;BME280;18335;51.486;7.562;2024-03-25T12:52:05;99178.81;;;12.93;100.00
31761;BME280;18335;51.486;7.562;2024-03-25T12:54:32;99172.78;;;12.50;93.23
31761;BME280;18335;51.486;7.562;2024-03-25T12:56:58;99179.00;;;12.72;94.52